Time;durP1;ratioP1;P1;durP2;ratioP2;P2;SDS_P1;SDS_P2;PMS_P1;PMS_P2;Temp;Humidity;BMP_temperature;BMP_pressure;BME280_temperature;BME280_humidity;BME280_pressure;Samples;Min_cycle;Max_cycle;Signal;HPM_P1;HPM_P2
2022/02/03 00:03:19;;;;;;;;;;;6.80;99.90;;;;;;6146402;23;19917;-83
2022/02/03 00:05:53;;;;;;;;;;;6.80;99.90;;;;;;6123099;23;19956;-83
2022/02/03 00:22:08;;;;;;;;;;;6.90;99.90;;;;;;6145627;23;19917;-85
2022/02/03 00:25:14;;;;;;;;;;;7.00;99.90;;;;;;6123067;23;20276;-83
2022/02/03 00:49:40;;;;;;;;;;;7.40;99.90;;;;;;6146976;23;19927;-84
2022/02/03 00:52:05;;;;;;;;;;;7.40;99.90;;;;;;6120903;23;19931;-85
2022/02/03 00:54:32;;;;;;;;;;;7.50;99.90;;;;;;6095381;23;19917;-85
2022/02/03 00:57:03;;;;;;;;;;;7.50;99.90;;;;;;6097259;23;19917;-85
2022/02/03 00:59:47;;;;;;;;;;;7.60;99.90;;;;;;6097572;23;19920;-83
2022/02/03 01:02:14;;;;;;;;;;;7.60;99.90;;;;;;6123152;23;19920;-83
2022/02/03 01:04:41;;;;;;;;;;;7.70;99.90;;;;;;6098338;23;20480;-89
2022/02/03 01:07:10;;;;;;;;;;;7.70;99.90;;;;;;6119108;23;19975;-82
2022/02/03 01:09:39;;;;;;;;;;;7.80;99.90;;;;;;6123814;23;19928;-85
2022/02/03 01:12:34;;;;;;;;;;;7.80;99.90;;;;;;6123689;23;19925;-87
2022/02/03 01:15:03;;;;;;;;;;;7.90;99.90;;;;;;6103098;23;19917;-82
2022/02/03 01:18:36;;;;;;;;;;;7.90;99.90;;;;;;6099910;23;19959;-86
2022/02/03 01:45:18;;;;;;;;;;;8.10;99.90;;;;;;6147774;23;19917;-87
2022/02/03 01:52:35;;;;;;;;;;;8.10;99.90;;;;;;6148280;23;20026;-84
2022/02/03 01:55:04;;;;;;;;;;;8.20;99.90;;;;;;6121968;23;19944;-85
2022/02/03 01:57:41;;;;;;;;;;;8.20;99.90;;;;;;6121463;23;19920;-85
2022/02/03 02:00:14;;;;;;;;;;;8.20;99.90;;;;;;6123023;23;19920;-85
2022/02/03 02:02:45;;;;;;;;;;;8.20;99.90;;;;;;6121822;23;20386;-87
2022/02/03 02:05:31;;;;;;;;;;;8.20;99.90;;;;;;6121295;23;19916;-85
2022/02/03 02:08:07;;;;;;;;;;;8.20;99.90;;;;;;6099316;23;19923;-85
2022/02/03 02:10:59;;;;;;;;;;;8.20;99.90;;;;;;6122303;23;20231;-86
2022/02/03 02:13:47;;;;;;;;;;;8.20;99.90;;;;;;6122564;23;20366;-86
2022/02/03 02:19:20;;;;;;;;;;;8.30;99.90;;;;;;6109094;23;20249;-85
2022/02/03 02:39:22;;;;;;;;;;;8.30;99.90;;;;;;6146328;23;19921;-86
2022/02/03 02:44:22;;;;;;;;;;;8.30;99.90;;;;;;6145951;23;19917;-87
2022/02/03 02:46:50;;;;;;;;;;;8.30;99.90;;;;;;6098239;23;19916;-86
2022/02/03 02:49:42;;;;;;;;;;;8.30;99.90;;;;;;6121505;23;20022;-85
2022/02/03 02:52:12;;;;;;;;;;;8.30;99.90;;;;;;6121761;23;19931;-85
2022/02/03 02:55:05;;;;;;;;;;;8.30;99.90;;;;;;6119468;23;20234;-85
2022/02/03 03:36:31;;;;;;;;;;;8.20;99.90;;;;;;6148367;23;19916;-85
2022/02/03 03:38:57;;;;;;;;;;;8.20;99.90;;;;;;6120123;23;19951;-85
2022/02/03 03:41:23;;;;;;;;;;;8.20;99.90;;;;;;6120508;23;19924;-87
2022/02/03 03:43:59;;;;;;;;;;;8.20;99.90;;;;;;6096239;23;20252;-85
2022/02/03 03:46:32;;;;;;;;;;;8.20;99.90;;;;;;6145694;23;19935;-85
2022/02/03 03:49:00;;;;;;;;;;;8.20;99.90;;;;;;6096523;23;19956;-87
2022/02/03 03:51:28;;;;;;;;;;;8.20;99.90;;;;;;6121714;23;19935;-88
2022/02/03 03:54:03;;;;;;;;;;;8.20;99.90;;;;;;6123112;23;20043;-89
2022/02/03 03:56:42;;;;;;;;;;;8.20;99.90;;;;;;6101957;23;19917;-87
2022/02/03 04:55:12;;;;;;;;;;;8.20;99.90;;;;;;6148146;23;19917;-87
2022/02/03 05:09:00;;;;;;;;;;;8.20;99.90;;;;;;6146697;23;20361;-86
2022/02/03 05:11:53;;;;;;;;;;;8.10;99.90;;;;;;6124334;23;19935;-86
2022/02/03 05:17:43;;;;;;;;;;;8.10;99.90;;;;;;6149169;23;20261;-85
2022/02/03 06:05:05;;;;;;;;;;;8.10;99.90;;;;;;6101080;23;19917;-84
2022/02/03 06:07:49;;;;;;;;;;;8.10;99.90;;;;;;6099468;23;19916;-86
2022/02/03 06:13:08;;;;;;;;;;;8.10;99.90;;;;;;6098686;23;20593;-86
2022/02/03 06:15:43;;;;;;;;;;;8.10;99.90;;;;;;6123296;23;19924;-84
2022/02/03 06:23:26;;;;;;;;;;;8.10;99.90;;;;;;6147647;23;19944;-89
2022/02/03 06:28:56;;;;;;;;;;;8.10;99.90;;;;;;6080315;23;19938;-81
2022/02/03 06:31:22;;;;;;;;;;;8.10;99.90;;;;;;6097941;23;20240;-85
2022/02/03 06:33:47;;;;;;;;;;;8.10;99.90;;;;;;6098857;23;19979;-85
2022/02/03 06:36:13;;;;;;;;;;;8.10;99.90;;;;;;6097113;23;19916;-82
2022/02/03 06:38:39;;;;;;;;;;;8.10;99.90;;;;;;6099538;23;19921;-88
2022/02/03 06:41:05;;;;;;;;;;;8.10;99.90;;;;;;6077550;23;20343;-85
2022/02/03 06:43:30;;;;;;;;;;;8.10;99.90;;;;;;6099858;23;19948;-86
2022/02/03 06:46:01;;;;;;;;;;;8.10;99.90;;;;;;6126108;23;19916;-83
2022/02/03 06:48:29;;;;;;;;;;;8.10;99.90;;;;;;6100409;23;19917;-87
2022/02/03 06:51:03;;;;;;;;;;;8.10;99.90;;;;;;6100217;23;19925;-83
2022/02/03 06:53:33;;;;;;;;;;;8.10;99.90;;;;;;6102281;23;19917;-85
2022/02/03 06:56:14;;;;;;;;;;;8.10;99.90;;;;;;6100349;23;19916;-87
2022/02/03 07:03:35;;;;;;;;;;;8.00;99.90;;;;;;6098905;23;20356;-84
2022/02/03 07:06:01;;;;;;;;;;;8.00;99.90;;;;;;6128424;23;19987;-88
2022/02/03 07:08:29;;;;;;;;;;;8.00;99.90;;;;;;6097845;23;20415;-86
2022/02/03 07:10:55;;;;;;;;;;;8.00;99.90;;;;;;6123693;23;20326;-85
2022/02/03 07:13:21;;;;;;;;;;;8.00;99.90;;;;;;6100250;23;20417;-83
2022/02/03 07:15:47;;;;;;;;;;;8.00;99.90;;;;;;6098701;23;20266;-85
2022/02/03 07:18:13;;;;;;;;;;;8.00;99.90;;;;;;6099043;23;19991;-84
2022/02/03 07:20:39;;;;;;;;;;;8.00;99.90;;;;;;6099514;23;20298;-83
2022/02/03 07:23:09;;;;;;;;;;;8.00;99.90;;;;;;6098717;23;19974;-87
2022/02/03 07:25:35;;;;;;;;;;;7.90;99.90;;;;;;6125332;23;19928;-88
2022/02/03 07:28:02;;;;;;;;;;;7.90;99.90;;;;;;6125265;23;19923;-86
2022/02/03 07:30:28;;;;;;;;;;;7.90;99.90;;;;;;6122014;23;19920;-86
2022/02/03 07:32:59;;;;;;;;;;;8.00;99.90;;;;;;6122302;23;19971;-84
2022/02/03 07:35:27;;;;;;;;;;;7.90;99.90;;;;;;6101825;23;19917;-87
2022/02/03 07:37:52;;;;;;;;;;;7.90;99.90;;;;;;6128808;23;19979;-83
2022/02/03 07:40:18;;;;;;;;;;;7.90;99.90;;;;;;6104856;23;19920;-85
2022/02/03 07:42:49;;;;;;;;;;;7.90;99.90;;;;;;6098619;23;19916;-83
2022/02/03 07:45:16;;;;;;;;;;;7.90;99.90;;;;;;6126642;23;19944;-83
2022/02/03 07:47:43;;;;;;;;;;;7.90;99.90;;;;;;6099232;23;19971;-87
2022/02/03 07:50:09;;;;;;;;;;;7.90;99.90;;;;;;6123630;23;20178;-83
2022/02/03 07:52:34;;;;;;;;;;;7.90;99.90;;;;;;6124111;23;19995;-87
2022/02/03 07:55:00;;;;;;;;;;;7.90;99.90;;;;;;6100204;23;19916;-82
2022/02/03 07:57:26;;;;;;;;;;;7.90;99.90;;;;;;6098271;23;19927;-86
2022/02/03 07:59:53;;;;;;;;;;;7.90;99.90;;;;;;6100521;23;19920;-85
2022/02/03 08:02:22;;;;;;;;;;;7.90;99.90;;;;;;6099354;23;20263;-87
2022/02/03 08:04:49;;;;;;;;;;;7.90;99.90;;;;;;6100406;23;20232;-84
2022/02/03 08:07:18;;;;;;;;;;;7.90;99.90;;;;;;6100794;23;19916;-82
2022/02/03 08:12:13;;;;;;;;;;;7.90;99.90;;;;;;6153306;23;19971;-86
2022/02/03 08:14:44;;;;;;;;;;;7.90;99.90;;;;;;6104509;23;19921;-83
2022/02/03 08:17:16;;;;;;;;;;;7.80;99.90;;;;;;6124227;23;19916;-84
2022/02/03 08:19:50;;;;;;;;;;;7.80;99.90;;;;;;6101681;23;20297;-85
2022/02/03 08:22:22;;;;;;;;;;;7.80;99.90;;;;;;6102418;23;19921;-87
2022/02/03 08:24:51;;;;;;;;;;;7.80;99.90;;;;;;6121899;23;20215;-84
2022/02/03 08:27:41;;;;;;;;;;;7.90;99.90;;;;;;6100318;23;19923;-85
2022/02/03 08:32:34;;;;;;;;;;;7.90;99.90;;;;;;6098188;23;20362;-82
2022/02/03 08:40:42;;;;;;;;;;;7.90;99.90;;;;;;6117713;23;19920;-87
2022/02/03 08:43:07;;;;;;;;;;;7.80;99.90;;;;;;6126397;23;19987;-86
2022/02/03 08:45:33;;;;;;;;;;;7.80;99.90;;;;;;6101410;23;19921;-87
2022/02/03 08:47:59;;;;;;;;;;;7.80;99.90;;;;;;6103995;23;19916;-85
2022/02/03 08:50:24;;;;;;;;;;;7.80;99.90;;;;;;6104037;23;19927;-82
2022/02/03 08:55:28;;;;;;;;;;;7.80;99.90;;;;;;6101348;23;19924;-83
2022/02/03 09:41:22;;;;;;;;;;;7.90;99.90;;;;;;6180073;23;19950;-85
2022/02/03 09:55:01;;;;;;;;;;;7.80;99.90;;;;;;6181199;23;19939;-83
2022/02/03 09:57:42;;;;;;;;;;;7.80;99.90;;;;;;6179058;23;20421;-83
2022/02/03 10:00:28;;;;;;;;;;;7.80;99.90;;;;;;6157563;23;19916;-84
2022/02/03 10:02:56;;;;;;;;;;;7.70;99.90;;;;;;6179469;23;19919;-84
2022/02/03 10:05:31;;;;;;;;;;;7.70;99.90;;;;;;6155388;23;19927;-84
2022/02/03 10:07:57;;;;;;;;;;;7.70;99.90;;;;;;6156881;23;19943;-83
2022/02/03 10:10:22;;;;;;;;;;;7.60;99.90;;;;;;6153184;23;20089;-82
2022/02/03 10:12:50;;;;;;;;;;;7.60;99.90;;;;;;6156225;23;20520;-83
2022/02/03 10:15:19;;;;;;;;;;;7.60;99.90;;;;;;6180767;23;19920;-85
2022/02/03 10:17:47;;;;;;;;;;;7.60;99.90;;;;;;6154529;23;19916;-84
2022/02/03 10:20:15;;;;;;;;;;;7.60;99.90;;;;;;6155289;23;19970;-84
2022/02/03 10:22:49;;;;;;;;;;;7.60;99.90;;;;;;6154430;23;20259;-83
2022/02/03 10:25:20;;;;;;;;;;;7.60;99.90;;;;;;6155350;23;19920;-84
2022/02/03 10:27:57;;;;;;;;;;;7.60;99.90;;;;;;6158656;23;19919;-83
2022/02/03 10:30:26;;;;;;;;;;;7.60;99.90;;;;;;6155581;23;20051;-85
2022/02/03 10:32:52;;;;;;;;;;;7.60;99.90;;;;;;6179678;23;19924;-85
2022/02/03 10:35:21;;;;;;;;;;;7.60;99.90;;;;;;6131777;23;19926;-85
2022/02/03 10:38:04;;;;;;;;;;;7.60;99.90;;;;;;6155500;23;19920;-84
2022/02/03 10:46:39;;;;;;;;;;;7.60;99.90;;;;;;6155558;23;20356;-84
2022/02/03 10:54:47;;;;;;;;;;;7.60;99.90;;;;;;6182531;23;19979;-85
2022/02/03 11:07:46;;;;;;;;;;;7.70;99.90;;;;;;6181788;23;19942;-85
2022/02/03 11:10:31;;;;;;;;;;;7.70;99.90;;;;;;6155818;23;19966;-85
2022/02/03 11:12:57;;;;;;;;;;;7.70;99.90;;;;;;6180194;23;19974;-85
2022/02/03 11:15:24;;;;;;;;;;;7.70;99.90;;;;;;6155652;23;20176;-84
2022/02/03 11:17:51;;;;;;;;;;;7.70;99.90;;;;;;6157422;23;19955;-85
2022/02/03 11:20:20;;;;;;;;;;;7.70;99.90;;;;;;6158785;23;19920;-84
2022/02/03 11:25:25;;;;;;;;;;;7.80;99.90;;;;;;6184966;23;19939;-85
2022/02/03 11:41:38;;;;;;;;;;;7.90;99.90;;;;;;6146964;23;20338;-83
2022/02/03 11:47:02;;;;;;;;;;;7.80;99.90;;;;;;6148341;23;19923;-85
2022/02/03 12:20:20;;;;;;;;;;;7.80;99.90;;;;;;6153349;23;19939;-84
2022/02/03 12:23:02;;;;;;;;;;;7.70;99.90;;;;;;6150155;23;19928;-83
2022/02/03 12:26:19;;;;;;;;;;;7.80;99.90;;;;;;6126765;23;19995;-83
2022/02/03 12:28:48;;;;;;;;;;;7.80;99.90;;;;;;6168980;23;20157;-86
2022/02/03 12:38:56;;;;;;;;;;;7.80;99.90;;;;;;6151734;23;19920;-84
2022/02/03 12:41:34;;;;;;;;;;;7.80;99.90;;;;;;6125268;23;19916;-84
2022/02/03 12:44:04;;;;;;;;;;;7.70;99.90;;;;;;6105537;23;19927;-84
2022/02/03 12:46:30;;;;;;;;;;;7.70;99.90;;;;;;6133354;23;19916;-84
2022/02/03 12:48:56;;;;;;;;;;;7.70;99.90;;;;;;6124258;23;19963;-84
2022/02/03 12:51:23;;;;;;;;;;;7.70;99.90;;;;;;6102161;23;20018;-83
2022/02/03 12:53:48;;;;;;;;;;;7.60;99.90;;;;;;6100384;23;19917;-84
2022/02/03 12:56:14;;;;;;;;;;;7.60;99.90;;;;;;6147636;23;19927;-84
2022/02/03 12:58:45;;;;;;;;;;;7.60;99.90;;;;;;6148986;23;20345;-84
2022/02/03 13:01:28;;;;;;;;;;;7.60;99.90;;;;;;6123239;23;20253;-83
2022/02/03 13:03:54;;;;;;;;;;;7.50;99.90;;;;;;6149705;23;19919;-83
2022/02/03 13:06:22;;;;;;;;;;;7.50;99.90;;;;;;6101626;23;19967;-84
2022/02/03 13:08:54;;;;;;;;;;;7.50;99.90;;;;;;6125572;23;19916;-83
2022/02/03 13:11:37;;;;;;;;;;;7.50;99.90;;;;;;6126081;23;19961;-84
2022/02/03 13:14:14;;;;;;;;;;;7.50;99.90;;;;;;6123066;23;20349;-84
2022/02/03 13:16:43;;;;;;;;;;;7.50;99.90;;;;;;6124097;23;19921;-85
2022/02/03 13:24:39;;;;;;;;;;;7.40;99.90;;;;;;6126944;23;19916;-85
2022/02/03 13:27:11;;;;;;;;;;;7.50;99.90;;;;;;6105099;23;19939;-86
2022/02/03 13:32:24;;;;;;;;;;;7.50;99.90;;;;;;6132034;23;20354;-85
2022/02/03 13:34:58;;;;;;;;;;;7.40;99.90;;;;;;6178136;23;20427;-86
2022/02/03 13:37:34;;;;;;;;;;;7.50;99.90;;;;;;6154801;23;19946;-85
2022/02/03 13:40:02;;;;;;;;;;;7.50;99.90;;;;;;6131452;23;19923;-84
2022/02/03 13:42:31;;;;;;;;;;;7.50;99.90;;;;;;6179490;23;19927;-85
2022/02/03 13:45:01;;;;;;;;;;;7.50;99.90;;;;;;6176704;23;20361;-86
2022/02/03 13:47:28;;;;;;;;;;;7.40;99.90;;;;;;6153941;23;20306;-85
2022/02/03 13:50:01;;;;;;;;;;;7.40;99.90;;;;;;6129805;23;20355;-86
2022/02/03 13:52:33;;;;;;;;;;;7.50;99.90;;;;;;6151375;23;20336;-85
2022/02/03 14:15:05;;;;;;;;;;;7.40;99.90;;;;;;6181919;23;19939;-86
2022/02/03 14:23:10;;;;;;;;;;;7.50;99.90;;;;;;6162906;23;19920;-85
2022/02/03 14:28:21;;;;;;;;;;;7.50;99.90;;;;;;6181856;23;20264;-84
2022/02/03 14:30:49;;;;;;;;;;;7.50;99.90;;;;;;6159953;23;20003;-85
2022/02/03 14:33:18;;;;;;;;;;;7.50;99.90;;;;;;6153583;23;19921;-85
2022/02/03 14:35:47;;;;;;;;;;;7.50;99.90;;;;;;6176771;23;20294;-87
2022/02/03 14:38:22;;;;;;;;;;;7.50;99.90;;;;;;6150082;23;19984;-86
2022/02/03 14:41:24;;;;;;;;;;;7.50;99.90;;;;;;6126207;23;19916;-87
2022/02/03 14:43:40;;;;;;;;;;;7.50;99.90;;;;;;6150880;23;19916;-86
2022/02/03 14:46:11;;;;;;;;;;;7.50;99.90;;;;;;6175317;23;20331;-87
2022/02/03 14:48:38;;;;;;;;;;;7.40;99.90;;;;;;6152090;23;19920;-86
2022/02/03 14:51:05;;;;;;;;;;;7.50;99.90;;;;;;6126755;23;19999;-85
2022/02/03 14:53:48;;;;;;;;;;;7.40;99.90;;;;;;6125641;23;20334;-86
2022/02/03 14:58:58;;;;;;;;;;;7.40;99.90;;;;;;6155281;23;20300;-85
2022/02/03 15:01:23;;;;;;;;;;;7.30;99.90;;;;;;6148207;23;19952;-86
2022/02/03 15:03:54;;;;;;;;;;;7.30;99.90;;;;;;6125846;23;19920;-85
2022/02/03 15:06:23;;;;;;;;;;;7.30;99.90;;;;;;6127136;23;20261;-84
2022/02/03 15:09:12;;;;;;;;;;;7.30;99.90;;;;;;6148387;23;19920;-85
2022/02/03 15:11:55;;;;;;;;;;;7.30;99.90;;;;;;6146241;23;19931;-84
2022/02/03 15:14:20;;;;;;;;;;;7.30;99.90;;;;;;6127323;23;19916;-89
2022/02/03 15:16:46;;;;;;;;;;;7.20;99.90;;;;;;6124314;23;19931;-86
2022/02/03 15:19:12;;;;;;;;;;;7.20;99.90;;;;;;6150029;23;20253;-86
2022/02/03 15:21:38;;;;;;;;;;;7.20;99.90;;;;;;6148911;23;19952;-87
2022/02/03 15:24:04;;;;;;;;;;;7.30;99.90;;;;;;6151733;23;19916;-85
2022/02/03 15:26:30;;;;;;;;;;;7.20;99.90;;;;;;6125081;23;20261;-85
2022/02/03 15:28:57;;;;;;;;;;;7.30;99.90;;;;;;6124878;23;20326;-85
2022/02/03 15:31:27;;;;;;;;;;;7.30;99.90;;;;;;6150050;23;20003;-86
2022/02/03 15:33:58;;;;;;;;;;;7.30;99.90;;;;;;6153998;23;20200;-86
2022/02/03 15:36:24;;;;;;;;;;;7.30;99.90;;;;;;6153198;23;19924;-85
2022/02/03 15:38:50;;;;;;;;;;;7.20;99.90;;;;;;6156824;23;19916;-86
2022/02/03 15:41:36;;;;;;;;;;;7.20;99.90;;;;;;6154280;23;20230;-86
2022/02/03 15:44:02;;;;;;;;;;;7.20;99.90;;;;;;6176644;23;19983;-86
2022/02/03 15:46:31;;;;;;;;;;;7.20;99.90;;;;;;6152206;23;19915;-84
2022/02/03 16:18:20;;;;;;;;;;;7.10;99.90;;;;;;6177970;23;20299;-85
2022/02/03 16:21:03;;;;;;;;;;;7.10;99.90;;;;;;6153163;23;19923;-86
2022/02/03 16:53:22;;;;;;;;;;;7.00;99.90;;;;;;6175995;23;19916;-88
2022/02/03 16:55:48;;;;;;;;;;;7.00;99.90;;;;;;6154218;23;19966;-87
2022/02/03 16:58:14;;;;;;;;;;;7.00;99.90;;;;;;6154710;23;19970;-86
2022/02/03 17:00:40;;;;;;;;;;;6.90;99.90;;;;;;6150237;23;19919;-87
2022/02/03 17:03:06;;;;;;;;;;;6.90;99.90;;;;;;6154209;23;19916;-87
2022/02/03 17:05:37;;;;;;;;;;;6.90;99.90;;;;;;6152676;23;19943;-88
2022/02/03 17:08:04;;;;;;;;;;;6.90;99.90;;;;;;6155331;23;19998;-86
2022/02/03 17:10:30;;;;;;;;;;;6.90;99.90;;;;;;6154879;23;19924;-86
2022/02/03 17:12:55;;;;;;;;;;;6.90;99.90;;;;;;6154204;23;19916;-87
2022/02/03 17:15:21;;;;;;;;;;;6.90;99.90;;;;;;6155367;23;20360;-86
2022/02/03 17:17:50;;;;;;;;;;;6.90;99.90;;;;;;6155526;23;19920;-87
2022/02/03 17:20:17;;;;;;;;;;;6.90;99.90;;;;;;6152376;23;19920;-86
2022/02/03 17:22:44;;;;;;;;;;;6.90;99.90;;;;;;6150948;23;19987;-88
2022/02/03 17:30:35;;;;;;;;;;;6.90;99.90;;;;;;6178308;23;19924;-86
2022/02/03 17:52:45;;;;;;;;;;;6.90;99.90;;;;;;6181357;23;19916;-87
2022/02/03 18:54:42;;;;;;;;;;;6.90;99.90;;;;;;6179251;23;19948;-85
2022/02/03 18:57:33;;;;;;;;;;;6.80;99.90;;;;;;6156183;23;19916;-88
2022/02/03 19:00:33;;;;;;;;;;;6.90;99.90;;;;;;6152781;23;19916;-86
2022/02/03 20:09:24;;;;;;;;;;;7.00;99.90;;;;;;6180365;23;19947;-85
2022/02/03 20:11:50;;;;;;;;;;;7.00;99.90;;;;;;6153505;23;19920;-85
2022/02/03 20:14:16;;;;;;;;;;;7.00;99.90;;;;;;6155210;23;19995;-86
2022/02/03 20:16:42;;;;;;;;;;;7.00;99.90;;;;;;6181188;23;19951;-85
2022/02/03 20:19:09;;;;;;;;;;;7.00;99.90;;;;;;6155031;23;19924;-84
2022/02/03 20:21:37;;;;;;;;;;;7.00;99.90;;;;;;6154105;23;19935;-86
2022/02/03 20:24:20;;;;;;;;;;;7.00;99.90;;;;;;6155706;23;19916;-86
2022/02/03 20:26:46;;;;;;;;;;;7.00;99.90;;;;;;6156635;23;19927;-86
2022/02/03 20:29:31;;;;;;;;;;;7.00;99.90;;;;;;6155608;23;19916;-87
2022/02/03 20:32:12;;;;;;;;;;;7.10;99.90;;;;;;6183065;23;19926;-85
2022/02/03 20:34:44;;;;;;;;;;;7.10;99.90;;;;;;6157113;23;19915;-86
2022/02/03 20:37:14;;;;;;;;;;;7.10;99.90;;;;;;6182413;23;19915;-86
2022/02/03 20:39:40;;;;;;;;;;;7.10;99.90;;;;;;6157095;23;19947;-86
2022/02/03 20:42:07;;;;;;;;;;;7.10;99.90;;;;;;6155927;23;19924;-85
2022/02/03 20:44:33;;;;;;;;;;;7.10;99.90;;;;;;6156836;23;19924;-86
2022/02/03 20:46:58;;;;;;;;;;;7.10;99.90;;;;;;6157659;23;19955;-87
2022/02/03 20:49:24;;;;;;;;;;;7.10;99.90;;;;;;6153522;23;19967;-84
2022/02/03 20:51:49;;;;;;;;;;;7.10;99.90;;;;;;6151529;23;20196;-85
2022/02/03 20:54:15;;;;;;;;;;;7.10;99.90;;;;;;6157107;23;19920;-85
2022/02/03 20:56:42;;;;;;;;;;;7.10;99.90;;;;;;6153045;23;19926;-85
2022/02/03 20:59:10;;;;;;;;;;;7.10;99.90;;;;;;6153269;23;19927;-85
2022/02/03 21:01:38;;;;;;;;;;;7.10;99.90;;;;;;6175912;23;19922;-84
2022/02/03 21:04:11;;;;;;;;;;;7.10;99.90;;;;;;6151566;23;19920;-87
2022/02/03 21:06:37;;;;;;;;;;;7.10;99.90;;;;;;6153330;23;20241;-86
2022/02/03 21:09:05;;;;;;;;;;;7.10;99.90;;;;;;6154732;23;19915;-87
2022/02/03 21:11:30;;;;;;;;;;;7.10;99.90;;;;;;6152905;23;19922;-86
2022/02/03 21:13:57;;;;;;;;;;;7.10;99.90;;;;;;6153469;23;20256;-86
2022/02/03 21:16:23;;;;;;;;;;;7.10;99.90;;;;;;6152890;23;20265;-84
2022/02/03 21:18:58;;;;;;;;;;;7.10;99.90;;;;;;6153110;23;19922;-86
2022/02/03 21:21:39;;;;;;;;;;;7.10;99.90;;;;;;6173574;23;19916;-85
2022/02/03 21:24:05;;;;;;;;;;;7.10;99.90;;;;;;6151593;23;19923;-86
2022/02/03 21:26:37;;;;;;;;;;;7.10;99.90;;;;;;6155000;23;20269;-85
2022/02/03 21:29:03;;;;;;;;;;;7.10;99.90;;;;;;6157833;23;19916;-86
2022/02/03 21:31:29;;;;;;;;;;;7.10;99.90;;;;;;6174661;23;19916;-86
2022/02/03 21:33:57;;;;;;;;;;;7.10;99.90;;;;;;6186313;23;20003;-85
2022/02/03 21:36:24;;;;;;;;;;;7.10;99.90;;;;;;6191602;23;19919;-87
2022/02/03 21:38:50;;;;;;;;;;;7.10;99.90;;;;;;6191449;23;20201;-85
2022/02/03 21:41:19;;;;;;;;;;;7.20;99.90;;;;;;6190474;23;19930;-85
2022/02/03 21:43:46;;;;;;;;;;;7.20;99.90;;;;;;6189254;23;20014;-87
2022/02/03 21:46:11;;;;;;;;;;;7.20;99.90;;;;;;6166968;23;20302;-85
2022/02/03 21:48:46;;;;;;;;;;;7.20;99.90;;;;;;6189943;23;19990;-86
2022/02/03 21:51:12;;;;;;;;;;;7.20;99.90;;;;;;6213698;23;19997;-87
2022/02/03 21:53:38;;;;;;;;;;;7.20;99.90;;;;;;6187575;23;19923;-88
2022/02/03 21:56:04;;;;;;;;;;;7.20;99.90;;;;;;6189268;23;20093;-84
2022/02/03 21:58:30;;;;;;;;;;;7.20;99.90;;;;;;6162795;23;20398;-83
2022/02/03 22:00:57;;;;;;;;;;;7.20;99.90;;;;;;6213963;23;19923;-87
2022/02/03 22:03:26;;;;;;;;;;;7.20;99.90;;;;;;6189154;23;20283;-84
2022/02/03 22:05:52;;;;;;;;;;;7.20;99.90;;;;;;6188917;23;20130;-82
2022/02/03 22:08:17;;;;;;;;;;;7.10;99.90;;;;;;6189039;23;19923;-86
2022/02/03 22:10:43;;;;;;;;;;;7.10;99.90;;;;;;6212947;23;20217;-85
2022/02/03 22:13:08;;;;;;;;;;;7.20;99.90;;;;;;6188942;23;20196;-86
2022/02/03 22:15:34;;;;;;;;;;;7.10;99.90;;;;;;6190410;23;19920;-87
2022/02/03 22:18:02;;;;;;;;;;;7.20;99.90;;;;;;6187830;23;20368;-86
2022/02/03 22:20:54;;;;;;;;;;;7.10;99.90;;;;;;6198422;23;19919;-90
2022/02/03 22:42:50;;;;;;;;;;;7.10;99.90;;;;;;6185502;23;19920;-89
2022/02/03 22:50:01;;;;;;;;;;;7.10;99.90;;;;;;6186429;23;19916;-89
2022/02/03 22:52:29;;;;;;;;;;;7.10;99.90;;;;;;6185199;23;19997;-87
2022/02/03 22:54:54;;;;;;;;;;;7.10;99.90;;;;;;6213246;23;19916;-86
2022/02/03 22:57:20;;;;;;;;;;;7.10;99.90;;;;;;6158198;23;19970;-87
2022/02/03 23:02:26;;;;;;;;;;;7.00;99.90;;;;;;6187399;23;20289;-85
2022/02/03 23:04:52;;;;;;;;;;;7.00;99.90;;;;;;6155533;23;19930;-87
2022/02/03 23:07:34;;;;;;;;;;;7.00;99.90;;;;;;6159257;23;19951;-82
2022/02/03 23:10:26;;;;;;;;;;;7.00;99.90;;;;;;6186321;23;19998;-87
2022/02/03 23:18:23;;;;;;;;;;;6.90;99.90;;;;;;6207726;23;20301;-88
2022/02/03 23:21:13;;;;;;;;;;;6.90;99.90;;;;;;6206805;23;19959;-85
2022/02/03 23:23:33;;;;;;;;;;;6.90;99.90;;;;;;6186284;23;19919;-90
2022/02/03 23:26:00;;;;;;;;;;;6.80;99.90;;;;;;6208440;23;20026;-83
2022/02/03 23:28:31;;;;;;;;;;;6.80;99.90;;;;;;6158181;23;19916;-87
2022/02/03 23:30:57;;;;;;;;;;;6.80;99.90;;;;;;6165908;23;20260;-87
2022/02/03 23:33:24;;;;;;;;;;;6.70;99.90;;;;;;6182683;23;19924;-85
2022/02/03 23:35:49;;;;;;;;;;;6.70;99.90;;;;;;6157972;23;19923;-82
2022/02/03 23:38:31;;;;;;;;;;;6.70;99.90;;;;;;6182543;23;20321;-83
